createdAt,value
2023-11-17T00:01:58.373Z,7.51
2023-11-17T00:04:25.541Z,7.52
2023-11-17T00:06:52.855Z,7.36
2023-11-17T00:09:19.884Z,7.36
2023-11-17T00:11:47.053Z,7.89
2023-11-17T00:14:14.126Z,8.11
2023-11-17T00:16:41.314Z,8.27
2023-11-17T00:19:09.023Z,7.63
2023-11-17T00:21:36.347Z,7.11
2023-11-17T00:24:07.410Z,7.56
2023-11-17T00:26:34.871Z,7.16
2023-11-17T00:29:02.884Z,6.82
2023-11-17T00:31:30.840Z,6.47
2023-11-17T00:33:59.198Z,6.38
2023-11-17T00:36:26.535Z,6.45
2023-11-17T00:38:53.724Z,6.53
2023-11-17T00:41:28.010Z,6.64
2023-11-17T00:43:59.004Z,6.69
2023-11-17T00:46:26.499Z,6.47
2023-11-17T00:48:53.682Z,6.51
2023-11-17T00:51:21.165Z,6.74
2023-11-17T00:53:48.232Z,6.99
2023-11-17T00:56:15.448Z,7.21
2023-11-17T00:58:42.641Z,7.23
2023-11-17T01:01:10.701Z,7.32
2023-11-17T01:03:38.057Z,7.20
2023-11-17T01:06:05.379Z,7.18
2023-11-17T01:08:33.080Z,7.28
2023-11-17T01:11:00.272Z,7.29
2023-11-17T01:13:27.689Z,7.28
2023-11-17T01:15:54.810Z,7.29
2023-11-17T01:18:22.066Z,7.27
2023-11-17T01:20:49.227Z,7.12
2023-11-17T01:23:16.262Z,7.03
2023-11-17T01:25:43.287Z,6.82
2023-11-17T01:28:10.508Z,6.85
2023-11-17T01:30:37.765Z,7.09
2023-11-17T01:33:05.326Z,7.19
2023-11-17T01:35:32.684Z,7.16
2023-11-17T01:37:59.722Z,7.20
2023-11-17T01:40:28.644Z,7.24
2023-11-17T01:43:07.066Z,7.50
2023-11-17T01:45:35.200Z,7.95
2023-11-17T01:48:02.985Z,7.44
2023-11-17T01:50:30.787Z,7.31
2023-11-17T01:52:58.309Z,7.32
2023-11-17T01:55:25.825Z,7.54
2023-11-17T01:57:54.193Z,7.08
2023-11-17T02:00:21.332Z,6.86
2023-11-17T02:02:51.228Z,7.42
2023-11-17T02:05:25.901Z,7.81
2023-11-17T02:08:42.268Z,7.55
2023-11-17T02:11:25.793Z,7.26
2023-11-17T02:14:06.818Z,7.24
2023-11-17T02:16:37.475Z,7.36
2023-11-17T02:19:16.637Z,7.41
2023-11-17T02:21:46.016Z,7.39
2023-11-17T02:24:15.180Z,7.38
2023-11-17T02:26:50.757Z,7.32
2023-11-17T02:29:29.772Z,7.32
2023-11-17T02:32:00.062Z,6.97
2023-11-17T02:34:27.942Z,7.14
2023-11-17T02:36:55.637Z,7.11
2023-11-17T02:39:37.721Z,7.04
2023-11-17T02:42:15.098Z,7.07
2023-11-17T02:44:42.215Z,7.18
2023-11-17T02:47:21.203Z,7.22
2023-11-17T02:49:54.530Z,7.24
2023-11-17T02:52:27.799Z,7.35
2023-11-17T02:54:56.964Z,7.56
2023-11-17T02:57:26.848Z,7.67
2023-11-17T02:59:54.935Z,7.84
2023-11-17T03:02:23.196Z,8.35
2023-11-17T03:04:55.900Z,8.56
2023-11-17T03:07:23.285Z,8.69
2023-11-17T03:09:53.514Z,8.82
2023-11-17T03:12:21.296Z,8.67
2023-11-17T03:14:48.306Z,8.52
2023-11-17T03:17:15.388Z,8.89
2023-11-17T03:19:43.839Z,9.08
2023-11-17T03:22:14.989Z,8.96
2023-11-17T03:24:42.872Z,8.96
2023-11-17T03:27:09.942Z,8.87
2023-11-17T03:29:38.446Z,8.96
2023-11-17T03:32:08.858Z,9.10
2023-11-17T03:34:36.195Z,8.81
2023-11-17T03:37:05.214Z,8.81
2023-11-17T03:39:43.446Z,9.11
2023-11-17T03:42:17.487Z,8.81
2023-11-17T03:44:44.542Z,8.73
2023-11-17T03:47:13.641Z,9.02
2023-11-17T03:49:42.123Z,9.15
2023-11-17T03:52:09.202Z,9.18
2023-11-17T03:54:38.725Z,9.16
2023-11-17T03:57:07.761Z,9.16
2023-11-17T03:59:35.610Z,9.13
2023-11-17T04:02:02.920Z,9.16
2023-11-17T04:04:30.414Z,8.99
2023-11-17T04:06:58.749Z,8.85
2023-11-17T04:09:27.059Z,8.69
2023-11-17T04:11:55.097Z,8.26
2023-11-17T04:14:23.668Z,8.64
2023-11-17T04:16:51.717Z,8.13
2023-11-17T04:19:22.226Z,8.16
2023-11-17T04:21:50.819Z,8.49
2023-11-17T04:24:18.701Z,8.46
2023-11-17T04:26:47.813Z,8.86
2023-11-17T04:29:15.180Z,8.59
2023-11-17T04:31:43.449Z,8.56
2023-11-17T04:34:12.947Z,8.71
2023-11-17T04:36:40.378Z,8.73
2023-11-17T04:39:18.805Z,8.95
2023-11-17T04:41:48.339Z,8.42
2023-11-17T04:44:15.682Z,8.51
2023-11-17T04:46:42.951Z,8.89
2023-11-17T04:49:10.206Z,8.99
2023-11-17T04:51:37.244Z,8.97
2023-11-17T04:54:04.486Z,9.14
2023-11-17T04:56:31.613Z,9.02
2023-11-17T04:58:58.763Z,9.08
2023-11-17T05:01:25.909Z,8.92
2023-11-17T05:03:53.092Z,9.12
2023-11-17T05:06:24.856Z,9.18
2023-11-17T05:08:52.142Z,9.24
2023-11-17T05:11:19.278Z,8.90
2023-11-17T05:13:46.281Z,8.99
2023-11-17T05:16:15.539Z,9.07
2023-11-17T05:18:44.123Z,9.20
2023-11-17T05:21:14.119Z,9.08
2023-11-17T05:23:41.192Z,9.15
2023-11-17T05:26:09.961Z,9.23
2023-11-17T05:28:37.452Z,9.17
2023-11-17T05:31:04.920Z,8.98
2023-11-17T05:33:32.117Z,9.03
2023-11-17T05:35:59.192Z,9.30
2023-11-17T05:38:27.762Z,9.23
2023-11-17T05:40:54.977Z,9.16
2023-11-17T05:43:22.089Z,9.23
2023-11-17T05:45:51.716Z,9.21
2023-11-17T05:48:18.881Z,9.15
2023-11-17T05:50:46.209Z,9.41
2023-11-17T05:53:13.237Z,9.46
2023-11-17T05:55:40.760Z,9.61
2023-11-17T05:58:09.017Z,9.63
2023-11-17T06:00:36.109Z,9.75
2023-11-17T06:03:03.384Z,9.76
2023-11-17T06:05:31.025Z,9.79
2023-11-17T06:07:58.298Z,9.85
2023-11-17T06:10:25.370Z,9.98
2023-11-17T06:12:52.541Z,9.87
2023-11-17T06:15:28.575Z,9.80
2023-11-17T06:17:56.015Z,9.83
2023-11-17T06:20:24.459Z,9.96
2023-11-17T06:22:51.459Z,10.02
2023-11-17T06:25:18.532Z,9.99
2023-11-17T06:27:47.459Z,10.06
2023-11-17T06:30:15.675Z,10.08
2023-11-17T06:32:43.684Z,9.94
2023-11-17T06:35:10.763Z,10.11
2023-11-17T06:37:38.925Z,10.13
2023-11-17T06:40:11.349Z,10.23
2023-11-17T06:42:41.245Z,10.17
2023-11-17T06:45:08.867Z,10.48
2023-11-17T06:47:36.244Z,10.64
2023-11-17T06:50:05.934Z,10.68
2023-11-17T06:52:33.163Z,10.67
2023-11-17T06:55:00.468Z,10.57
2023-11-17T06:57:29.215Z,10.76
2023-11-17T06:59:56.243Z,10.88
2023-11-17T07:02:23.443Z,10.95
2023-11-17T07:04:50.576Z,11.01
2023-11-17T07:07:17.802Z,11.15
2023-11-17T07:09:44.914Z,11.13
2023-11-17T07:12:12.037Z,11.10
2023-11-17T07:14:39.492Z,11.02
2023-11-17T07:17:06.695Z,10.84
2023-11-17T07:19:37.083Z,10.88
2023-11-17T07:22:04.394Z,11.14
2023-11-17T07:24:32.155Z,11.14
2023-11-17T07:27:00.298Z,11.28
2023-11-17T07:29:27.831Z,11.25
2023-11-17T07:31:55.747Z,11.35
2023-11-17T07:34:23.253Z,11.38
2023-11-17T07:36:50.493Z,11.39
2023-11-17T07:39:20.983Z,11.36
2023-11-17T07:41:48.610Z,11.08
2023-11-17T07:44:23.008Z,11.32
2023-11-17T07:46:50.303Z,11.35
2023-11-17T07:49:21.046Z,11.53
2023-11-17T07:51:49.573Z,11.34
2023-11-17T07:54:18.471Z,11.51
2023-11-17T07:56:52.278Z,11.43
2023-11-17T07:59:20.744Z,11.41
2023-11-17T08:01:48.501Z,11.35
2023-11-17T08:04:18.499Z,11.54
2023-11-17T08:06:46.303Z,11.40
2023-11-17T08:09:14.155Z,11.48
2023-11-17T08:11:41.743Z,11.41
2023-11-17T08:14:10.299Z,11.35
2023-11-17T08:16:38.272Z,11.29
2023-11-17T08:19:18.311Z,11.28
2023-11-17T08:21:53.209Z,11.11
2023-11-17T08:24:22.215Z,11.36
2023-11-17T08:26:52.228Z,11.27
2023-11-17T08:29:22.797Z,11.18
2023-11-17T08:31:51.439Z,11.29
2023-11-17T08:34:18.976Z,11.41
2023-11-17T08:36:46.202Z,11.52
2023-11-17T08:39:27.087Z,11.40
2023-11-17T08:41:56.584Z,11.71
2023-11-17T08:44:24.899Z,11.49
2023-11-17T08:46:53.055Z,11.81
2023-11-17T08:49:22.428Z,12.04
2023-11-17T08:51:49.777Z,12.00
2023-11-17T08:54:20.133Z,12.04
2023-11-17T08:56:50.286Z,12.09
2023-11-17T08:59:17.902Z,11.84
2023-11-17T09:01:45.783Z,11.79
2023-11-17T09:04:13.715Z,12.05
2023-11-17T09:06:41.037Z,12.00
2023-11-17T09:09:24.130Z,11.91
2023-11-17T09:12:00.529Z,11.79
2023-11-17T09:14:32.160Z,12.00
2023-11-17T09:17:03.137Z,11.93
2023-11-17T09:19:30.660Z,11.98
2023-11-17T09:21:57.778Z,12.21
2023-11-17T09:24:24.936Z,12.37
2023-11-17T09:26:51.978Z,12.59
2023-11-17T09:29:20.307Z,12.35
2023-11-17T09:31:49.138Z,12.40
2023-11-17T09:34:18.298Z,12.57
2023-11-17T09:36:45.673Z,12.51
2023-11-17T09:39:12.919Z,12.81
2023-11-17T09:41:42.120Z,12.67
2023-11-17T09:44:10.110Z,12.68
2023-11-17T10:18:49.769Z,11.81
2023-11-17T10:21:20.485Z,12.02
2023-11-17T10:23:52.373Z,12.30
2023-11-17T10:26:21.374Z,12.39
2023-11-17T10:28:49.121Z,12.55
2023-11-17T10:31:18.456Z,12.65
2023-11-17T10:33:47.025Z,12.79
2023-11-17T10:36:19.772Z,12.79
2023-11-17T10:38:48.906Z,12.94
2023-11-17T10:41:21.946Z,13.05
2023-11-17T10:43:59.701Z,13.18
2023-11-17T10:46:32.393Z,13.32
2023-11-17T10:49:06.210Z,13.33
2023-11-17T10:51:36.007Z,13.28
2023-11-17T10:54:10.704Z,13.45
2023-11-17T10:56:38.594Z,13.36
2023-11-17T10:59:10.118Z,13.52
2023-11-17T11:01:38.809Z,13.55
2023-11-17T11:04:17.202Z,13.73
2023-11-17T11:06:44.931Z,13.51
2023-11-17T11:09:19.427Z,13.51
2023-11-17T11:11:52.138Z,13.49
2023-11-17T11:14:21.989Z,13.47
2023-11-17T11:16:50.474Z,13.64
2023-11-17T11:19:24.420Z,13.71
2023-11-17T11:22:02.914Z,13.57
2023-11-17T11:24:37.988Z,13.35
2023-11-17T11:27:07.626Z,13.31
2023-11-17T11:29:40.316Z,13.25
2023-11-17T11:32:09.854Z,13.31
2023-11-17T11:34:37.489Z,13.21
2023-11-17T11:37:05.555Z,13.18
2023-11-17T11:39:32.959Z,13.43
2023-11-17T11:42:01.927Z,13.42
2023-11-17T11:44:29.230Z,13.64
2023-11-17T11:46:59.289Z,13.47
2023-11-17T11:49:27.198Z,13.77
2023-11-17T11:52:11.183Z,13.80
2023-11-17T11:54:38.981Z,13.65
2023-11-17T11:57:32.619Z,13.84
2023-11-17T12:00:15.721Z,13.81
2023-11-17T12:02:59.701Z,13.71
2023-11-17T12:05:30.258Z,13.64
2023-11-17T12:07:58.667Z,13.69
2023-11-17T12:10:26.670Z,13.67
2023-11-17T12:12:57.115Z,13.64
2023-11-17T12:15:24.853Z,13.59
2023-11-17T12:18:07.311Z,13.45
2023-11-17T12:20:40.279Z,13.44
2023-11-17T12:23:08.012Z,13.47
2023-11-17T12:25:36.243Z,13.55
2023-11-17T12:28:03.856Z,13.60
2023-11-17T12:30:32.598Z,13.49
2023-11-17T12:33:00.599Z,13.74
2023-11-17T12:35:28.849Z,13.84
2023-11-17T12:37:56.642Z,13.83
2023-11-17T12:40:24.260Z,13.90
2023-11-17T12:42:52.167Z,14.04
2023-11-17T12:45:21.293Z,14.04
2023-11-17T12:47:48.901Z,14.00
2023-11-17T12:50:16.082Z,13.85
2023-11-17T12:55:30.431Z,13.88
2023-11-17T12:57:57.574Z,13.77
2023-11-17T13:00:29.435Z,13.96
2023-11-17T13:02:56.974Z,13.98
2023-11-17T13:05:26.973Z,13.91
2023-11-17T13:07:55.369Z,14.06
2023-11-17T13:10:22.820Z,14.09
2023-11-17T13:12:50.278Z,14.19
2023-11-17T13:15:17.716Z,14.17
2023-11-17T13:17:45.552Z,13.90
2023-11-17T13:20:21.769Z,14.14
2023-11-17T13:22:51.196Z,13.99
2023-11-17T13:25:18.744Z,13.99
2023-11-17T13:27:46.065Z,14.13
2023-11-17T13:30:15.610Z,14.01
2023-11-17T13:32:54.608Z,14.11
2023-11-17T13:35:24.283Z,13.94
2023-11-17T13:37:52.551Z,13.88
2023-11-17T13:40:38.586Z,13.81
2023-11-17T13:43:13.065Z,13.85
2023-11-17T13:45:43.808Z,13.90
2023-11-17T13:48:13.688Z,13.88
2023-11-17T13:50:42.617Z,13.79
2023-11-17T13:53:12.601Z,13.75
2023-11-17T13:55:40.924Z,13.71
2023-11-17T13:58:08.374Z,13.63
2023-11-17T14:00:36.726Z,13.53
2023-11-17T14:03:05.159Z,13.69
2023-11-17T14:05:32.400Z,13.59
2023-11-17T14:07:59.397Z,13.68
2023-11-17T14:10:26.553Z,13.59
2023-11-17T14:12:53.622Z,13.69
2023-11-17T14:15:20.998Z,13.81
2023-11-17T14:17:49.330Z,13.94
2023-11-17T14:20:18.891Z,13.90
2023-11-17T14:22:46.439Z,13.72
2023-11-17T14:25:13.738Z,13.62
2023-11-17T14:27:41.380Z,13.66
2023-11-17T14:30:09.654Z,13.86
2023-11-17T14:32:37.690Z,13.80
2023-11-17T14:35:05.955Z,13.91
2023-11-17T14:37:32.991Z,13.78
2023-11-17T14:40:00.461Z,13.81
2023-11-17T14:42:27.651Z,13.74
2023-11-17T14:44:54.827Z,13.57
2023-11-17T14:47:23.825Z,13.68
2023-11-17T14:49:51.751Z,13.70
2023-11-17T14:52:18.974Z,13.62
2023-11-17T14:54:47.433Z,13.60
2023-11-17T14:57:15.860Z,13.42
2023-11-17T14:59:43.297Z,13.42
2023-11-17T15:02:10.657Z,13.42
2023-11-17T15:04:37.970Z,13.52
2023-11-17T15:07:05.377Z,13.47
2023-11-17T15:09:35.235Z,13.48
2023-11-17T15:12:02.384Z,13.49
2023-11-17T15:14:29.488Z,13.39
2023-11-17T15:16:57.929Z,13.39
2023-11-17T15:19:27.774Z,13.35
2023-11-17T15:21:55.258Z,13.33
2023-11-17T15:24:23.722Z,13.16
2023-11-17T15:26:53.366Z,13.15
2023-11-17T15:29:23.437Z,13.10
2023-11-17T15:31:53.203Z,13.07
2023-11-17T15:34:22.701Z,13.10
2023-11-17T15:36:52.031Z,13.02
2023-11-17T15:39:19.232Z,13.00
2023-11-17T15:41:46.548Z,13.07
2023-11-17T15:44:19.627Z,13.16
2023-11-17T15:46:47.750Z,12.90
2023-11-17T15:49:17.056Z,12.94
2023-11-17T15:51:44.991Z,13.20
2023-11-17T15:54:11.989Z,13.30
2023-11-17T15:56:41.659Z,13.30
2023-11-17T15:59:10.843Z,13.37
2023-11-17T16:01:40.415Z,13.33
2023-11-17T16:04:09.076Z,13.23
2023-11-17T16:06:38.874Z,13.25
2023-11-17T16:09:11.767Z,13.29
2023-11-17T16:11:41.743Z,13.16
2023-11-17T16:14:14.330Z,13.29
2023-11-17T16:16:43.219Z,13.29
2023-11-17T16:19:11.062Z,13.29
2023-11-17T16:21:38.353Z,13.11
2023-11-17T16:24:06.603Z,13.29
2023-11-17T16:26:34.719Z,13.35
2023-11-17T16:29:02.381Z,13.31
2023-11-17T16:31:29.780Z,13.23
2023-11-17T16:33:56.904Z,13.28
2023-11-17T16:36:25.580Z,13.21
2023-11-17T16:38:53.148Z,13.28
2023-11-17T16:41:21.917Z,13.23
2023-11-17T16:43:52.061Z,13.24
2023-11-17T16:46:22.063Z,13.28
2023-11-17T16:48:51.818Z,13.14
2023-11-17T16:51:19.262Z,13.26
2023-11-17T16:53:47.652Z,13.36
2023-11-17T16:56:16.055Z,13.25
2023-11-17T16:58:43.566Z,13.01
2023-11-17T17:01:11.234Z,12.93
2023-11-17T17:03:38.905Z,12.88
2023-11-17T17:06:06.308Z,13.10
2023-11-17T17:08:36.398Z,12.98
2023-11-17T17:11:06.204Z,13.06
2023-11-17T17:13:35.326Z,13.09
2023-11-17T17:16:02.858Z,13.17
2023-11-17T17:18:31.021Z,13.30
2023-11-17T17:20:58.730Z,13.36
2023-11-17T17:23:26.809Z,13.19
2023-11-17T17:25:56.608Z,13.18
2023-11-17T17:28:24.021Z,13.20
2023-11-17T17:30:51.699Z,13.00
2023-11-17T17:33:18.892Z,13.20
2023-11-17T17:35:46.916Z,13.10
2023-11-17T17:38:14.928Z,13.12
2023-11-17T17:40:43.917Z,13.09
2023-11-17T17:43:13.280Z,13.22
2023-11-17T17:45:41.510Z,13.23
2023-11-17T17:48:09.537Z,13.18
2023-11-17T17:50:38.178Z,13.09
2023-11-17T17:53:05.551Z,13.21
2023-11-17T17:55:32.871Z,13.06
2023-11-17T17:58:00.003Z,13.11
2023-11-17T18:00:29.310Z,13.14
2023-11-17T18:03:01.445Z,13.08
2023-11-17T18:05:31.277Z,13.06
2023-11-17T18:07:58.973Z,13.04
2023-11-17T18:10:27.000Z,12.95
2023-11-17T18:12:54.905Z,12.91
2023-11-17T18:15:23.379Z,12.92
2023-11-17T18:17:53.512Z,13.03
2023-11-17T18:20:24.679Z,13.14
2023-11-17T18:22:53.603Z,13.17
2023-11-17T18:25:22.520Z,13.23
2023-11-17T18:27:53.346Z,13.16
2023-11-17T18:30:22.454Z,12.90
2023-11-17T18:32:50.743Z,13.07
2023-11-17T18:35:23.179Z,13.05
2023-11-17T18:37:51.421Z,13.09
2023-11-17T18:40:23.811Z,13.10
2023-11-17T18:42:54.519Z,13.05
2023-11-17T18:45:22.438Z,13.12
2023-11-17T18:47:50.309Z,13.11
2023-11-17T18:50:19.704Z,13.13
2023-11-17T18:52:48.594Z,13.08
2023-11-17T18:55:18.295Z,13.20
2023-11-17T18:57:46.300Z,13.01
2023-11-17T19:00:22.175Z,12.91
2023-11-17T19:02:50.793Z,13.06
2023-11-17T19:05:20.233Z,12.94
2023-11-17T19:07:53.425Z,12.95
2023-11-17T19:10:22.039Z,12.90
2023-11-17T19:12:51.053Z,12.87
2023-11-17T19:15:20.977Z,12.63
2023-11-17T19:17:48.707Z,12.52
2023-11-17T19:20:16.836Z,12.54
2023-11-17T19:22:45.497Z,12.56
2023-11-17T19:25:13.072Z,12.37
2023-11-17T19:27:41.478Z,12.31
2023-11-17T19:30:16.353Z,12.38
2023-11-17T19:32:51.183Z,12.26
2023-11-17T19:35:23.589Z,12.41
2023-11-17T19:37:52.050Z,12.18
2023-11-17T19:40:19.377Z,11.61
2023-11-17T19:42:46.536Z,11.90
2023-11-17T19:45:18.311Z,12.08
2023-11-17T19:47:46.327Z,12.09
2023-11-17T19:50:16.096Z,12.09
2023-11-17T19:52:48.396Z,12.15
2023-11-17T19:55:16.450Z,12.17
2023-11-17T19:57:48.807Z,12.17
2023-11-17T20:00:24.654Z,12.12
2023-11-17T20:02:57.073Z,12.05
2023-11-17T20:05:24.809Z,11.73
2023-11-17T20:07:53.651Z,11.86
2023-11-17T20:10:21.831Z,11.88
2023-11-17T20:12:49.148Z,11.93
2023-11-17T20:15:16.405Z,11.98
2023-11-17T20:17:56.830Z,11.98
2023-11-17T20:20:29.143Z,11.96
2023-11-17T20:22:57.891Z,11.89
2023-11-17T20:25:26.594Z,11.56
2023-11-17T20:27:56.583Z,11.58
2023-11-17T20:30:26.650Z,11.69
2023-11-17T20:32:55.769Z,11.80
2023-11-17T20:35:25.284Z,11.84
2023-11-17T20:37:53.970Z,11.88
2023-11-17T20:40:21.645Z,11.91
2023-11-17T20:42:52.208Z,11.94
2023-11-17T20:45:22.089Z,11.99
2023-11-17T20:47:49.592Z,11.95
2023-11-17T20:50:20.826Z,12.00
2023-11-17T20:52:53.526Z,11.99
2023-11-17T20:55:22.305Z,12.02
2023-11-17T20:57:51.117Z,11.91
2023-11-17T21:00:22.401Z,11.92
2023-11-17T21:02:52.965Z,12.01
2023-11-17T21:05:21.430Z,11.76
2023-11-17T21:07:49.557Z,11.88
2023-11-17T21:10:23.483Z,11.93
2023-11-17T21:12:53.438Z,11.93
2023-11-17T21:15:22.463Z,11.93
2023-11-17T21:17:52.639Z,11.90
2023-11-17T21:20:21.851Z,11.91
2023-11-17T21:22:49.390Z,11.96
2023-11-17T21:25:19.491Z,11.90
2023-11-17T21:27:49.255Z,11.81
2023-11-17T21:30:17.114Z,11.89
2023-11-17T21:32:52.475Z,11.82
2023-11-17T21:35:20.696Z,11.81
2023-11-17T21:37:56.841Z,11.89
2023-11-17T21:40:24.751Z,11.83
2023-11-17T21:42:53.497Z,11.89
2023-11-17T21:45:24.847Z,11.84
2023-11-17T21:47:53.672Z,11.75
2023-11-17T21:50:22.599Z,11.66
2023-11-17T21:52:50.868Z,11.84
2023-11-17T21:55:19.355Z,11.86
2023-11-17T21:57:47.809Z,11.86
2023-11-17T22:00:18.600Z,11.84
2023-11-17T22:02:47.957Z,11.85
2023-11-17T22:05:17.198Z,11.73
2023-11-17T22:07:45.361Z,11.54
2023-11-17T22:10:13.352Z,11.77
2023-11-17T22:12:41.449Z,11.76
2023-11-17T22:15:10.268Z,11.82
2023-11-17T22:17:37.936Z,11.45
2023-11-17T22:20:07.107Z,11.51
2023-11-17T22:22:34.908Z,11.07
2023-11-17T22:25:02.791Z,10.97
2023-11-17T22:27:30.048Z,11.37
2023-11-17T22:29:57.778Z,11.60
2023-11-17T22:32:25.160Z,11.59
2023-11-17T22:34:52.403Z,11.61
2023-11-17T22:37:19.852Z,11.75
2023-11-17T22:39:47.189Z,11.71
2023-11-17T22:42:14.870Z,11.37
2023-11-17T22:44:42.083Z,11.36
2023-11-17T22:47:09.314Z,11.68
2023-11-17T22:49:39.782Z,11.46
2023-11-17T22:52:06.918Z,11.36
2023-11-17T22:54:34.537Z,11.55
2023-11-17T22:57:01.693Z,11.19
2023-11-17T22:59:28.810Z,11.14
2023-11-17T23:01:56.021Z,10.88
2023-11-17T23:04:23.149Z,10.53
2023-11-17T23:06:50.272Z,10.49
2023-11-17T23:09:17.353Z,10.45
2023-11-17T23:11:45.381Z,10.30
2023-11-17T23:14:12.630Z,10.23
2023-11-17T23:16:40.087Z,10.19
2023-11-17T23:19:17.892Z,10.23
2023-11-17T23:21:47.768Z,10.23
2023-11-17T23:24:14.985Z,10.13
2023-11-17T23:26:41.988Z,9.91
2023-11-17T23:29:09.901Z,10.14
2023-11-17T23:31:37.047Z,10.26
2023-11-17T23:34:04.093Z,10.19
2023-11-17T23:36:31.167Z,10.07
2023-11-17T23:38:59.121Z,10.00
2023-11-17T23:41:26.730Z,10.11
2023-11-17T23:43:55.395Z,10.17
2023-11-17T23:46:24.407Z,10.14
2023-11-17T23:48:51.836Z,10.14
2023-11-17T23:51:18.881Z,10.15
2023-11-17T23:53:45.939Z,10.35
2023-11-17T23:56:13.871Z,10.60
2023-11-17T23:58:41.111Z,10.80
